CSN187 RKSS-ZBAD
Flight info
| Callsign | CSN187 |
|---|---|
| Flight time | 1h 36m |
| Altitude | 32100 |
| Route | NOPIK G597 AGAVO A591 IKEKA W4 HCH W200 DOVIV W55 DUMAP |
| Aircraft | B772/H-SDE2E3FGILRWXY/LB2 |
Departure
| Time | 2026-04-15 13:10 |
|---|---|
| Airport | Gimpo International Airport (RKSS) |
Arrival
| Time | 2026-04-15 14:47 |
|---|---|
| Airport | Beijing Daxing International Airport (ZBAD) |
| Time | Latitude | Longitude | Altitude | Speed | Heading |
|---|---|---|---|---|---|
| 2026-04-15 12:37 | 37.56607 | 126.79929 | 73 ft | 0 kts | 167° |
| 2026-04-15 12:40 | 37.56615 | 126.79927 | 73 ft | 2 kts | 167° |
| 2026-04-15 12:40 | 37.56630 | 126.79923 | 73 ft | 2 kts | 167° |
| 2026-04-15 12:40 | 37.56643 | 126.79919 | 73 ft | 2 kts | 170° |
| 2026-04-15 12:40 | 37.56656 | 126.79917 | 73 ft | 2 kts | 179° |
| 2026-04-15 12:41 | 37.56671 | 126.79918 | 73 ft | 2 kts | 187° |
| 2026-04-15 12:41 | 37.56683 | 126.79920 | 73 ft | 2 kts | 193° |
| 2026-04-15 12:41 | 37.56703 | 126.79928 | 73 ft | 2 kts | 205° |
| 2026-04-15 12:42 | 37.56716 | 126.79937 | 73 ft | 2 kts | 213° |
| 2026-04-15 12:42 | 37.56726 | 126.79946 | 73 ft | 2 kts | 219° |
| 2026-04-15 12:42 | 37.56734 | 126.79954 | 73 ft | 1 kts | 225° |
| 2026-04-15 12:42 | 37.56735 | 126.79955 | 73 ft | 0 kts | 225° |
| 2026-04-15 13:02 | 37.56717 | 126.79933 | 73 ft | 6 kts | 225° |
| 2026-04-15 13:02 | 37.56671 | 126.79876 | 73 ft | 12 kts | 225° |
| 2026-04-15 13:02 | 37.56594 | 126.79781 | 73 ft | 18 kts | 225° |
| 2026-04-15 13:02 | 37.56495 | 126.79657 | 73 ft | 22 kts | 225° |
| 2026-04-15 13:03 | 37.56327 | 126.79446 | 73 ft | 28 kts | 225° |
| 2026-04-15 13:03 | 37.56227 | 126.79320 | 73 ft | 28 kts | 225° |
| 2026-04-15 13:03 | 37.56095 | 126.79346 | 73 ft | 22 kts | 135° |
| 2026-04-15 13:03 | 37.55980 | 126.79494 | 73 ft | 24 kts | 135° |
| 2026-04-15 13:04 | 37.55808 | 126.79707 | 73 ft | 27 kts | 135° |
| 2026-04-15 13:04 | 37.55669 | 126.79883 | 73 ft | 29 kts | 135° |
| 2026-04-15 13:04 | 37.55521 | 126.80069 | 73 ft | 30 kts | 135° |
| 2026-04-15 13:04 | 37.55367 | 126.80262 | 73 ft | 32 kts | 135° |
| 2026-04-15 13:05 | 37.55205 | 126.80466 | 73 ft | 33 kts | 135° |
| 2026-04-15 13:05 | 37.55038 | 126.80676 | 73 ft | 34 kts | 135° |
| 2026-04-15 13:05 | 37.54952 | 126.80784 | 73 ft | 11 kts | 135° |
| 2026-04-15 13:05 | 37.54904 | 126.80822 | 73 ft | 8 kts | 173° |
| 2026-04-15 13:06 | 37.54861 | 126.80791 | 73 ft | 0 kts | 225° |
| 2026-04-15 13:08 | 37.54833 | 126.80756 | 73 ft | 10 kts | 226° |
| 2026-04-15 13:08 | 37.54826 | 126.80650 | 73 ft | 14 kts | 302° |
| 2026-04-15 13:09 | 37.54873 | 126.80586 | 73 ft | 12 kts | 316° |
| 2026-04-15 13:09 | 37.54891 | 126.80563 | 73 ft | 15 kts | 314° |
| 2026-04-15 13:09 | 37.55263 | 126.80107 | 73 ft | 91 kts | 315° |
| 2026-04-15 13:09 | 37.55822 | 126.79404 | 75 ft | 144 kts | 315° |
| 2026-04-15 13:10 | 37.56382 | 126.78711 | 217 ft | 187 kts | 316° |
| 2026-04-15 13:10 | 37.57369 | 126.77487 | 944 ft | 226 kts | 317° |
| 2026-04-15 13:10 | 37.58794 | 126.75562 | 2049 ft | 233 kts | 314° |
| 2026-04-15 13:10 | 37.59501 | 126.74531 | 2359 ft | 232 kts | 315° |
| 2026-04-15 13:11 | 37.60576 | 126.73046 | 2807 ft | 233 kts | 316° |
| 2026-04-15 13:11 | 37.61726 | 126.70727 | 3409 ft | 241 kts | 288° |
| 2026-04-15 13:11 | 37.61874 | 126.68659 | 3849 ft | 243 kts | 263° |
| 2026-04-15 13:11 | 37.61324 | 126.66634 | 4291 ft | 248 kts | 238° |
| 2026-04-15 13:12 | 37.60635 | 126.65489 | 4592 ft | 248 kts | 228° |
| 2026-04-15 13:12 | 37.59084 | 126.63351 | 5196 ft | 251 kts | 226° |
| 2026-04-15 13:12 | 37.58314 | 126.62312 | 5496 ft | 251 kts | 226° |
| 2026-04-15 13:12 | 37.56704 | 126.60127 | 6112 ft | 255 kts | 226° |
| 2026-04-15 13:13 | 37.55782 | 126.58875 | 6461 ft | 256 kts | 226° |
| 2026-04-15 13:13 | 37.54614 | 126.57288 | 6899 ft | 259 kts | 226° |
| 2026-04-15 13:13 | 37.53583 | 126.55888 | 7286 ft | 260 kts | 227° |
| 2026-04-15 13:13 | 37.52368 | 126.54183 | 7749 ft | 266 kts | 234° |
| 2026-04-15 13:14 | 37.51593 | 126.52550 | 8134 ft | 277 kts | 243° |
| 2026-04-15 13:14 | 37.51230 | 126.51657 | 8329 ft | 281 kts | 245° |
| 2026-04-15 13:14 | 37.50069 | 126.48692 | 8948 ft | 284 kts | 245° |
| 2026-04-15 13:14 | 37.49210 | 126.46508 | 9397 ft | 286 kts | 245° |
| 2026-04-15 13:15 | 37.48328 | 126.44276 | 9845 ft | 287 kts | 245° |
| 2026-04-15 13:15 | 37.47435 | 126.42024 | 10295 ft | 289 kts | 246° |
| 2026-04-15 13:15 | 37.46844 | 126.40534 | 10597 ft | 289 kts | 246° |
| 2026-04-15 13:15 | 37.45643 | 126.37511 | 11203 ft | 291 kts | 246° |
| 2026-04-15 13:16 | 37.45036 | 126.35983 | 11503 ft | 292 kts | 246° |
| 2026-04-15 13:16 | 37.43825 | 126.32940 | 12105 ft | 293 kts | 245° |
| 2026-04-15 13:16 | 37.42912 | 126.30643 | 12554 ft | 296 kts | 246° |
| 2026-04-15 13:16 | 37.41966 | 126.28264 | 13018 ft | 312 kts | 246° |
| 2026-04-15 13:17 | 37.41221 | 126.25669 | 13474 ft | 325 kts | 259° |
| 2026-04-15 13:17 | 37.40971 | 126.23756 | 13604 ft | 340 kts | 268° |
| 2026-04-15 13:17 | 37.40895 | 126.19654 | 13618 ft | 360 kts | 272° |
| 2026-04-15 13:17 | 37.40883 | 126.16513 | 13612 ft | 362 kts | 272° |
| 2026-04-15 13:18 | 37.40865 | 126.13362 | 13852 ft | 362 kts | 271° |
| 2026-04-15 13:18 | 37.40849 | 126.11225 | 14113 ft | 363 kts | 271° |
| 2026-04-15 13:18 | 37.40813 | 126.07026 | 14601 ft | 364 kts | 272° |
| 2026-04-15 13:18 | 37.40783 | 126.03842 | 14962 ft | 365 kts | 272° |
| 2026-04-15 13:19 | 37.40752 | 126.00642 | 15355 ft | 366 kts | 272° |
| 2026-04-15 13:19 | 37.40719 | 125.97433 | 15713 ft | 367 kts | 272° |
| 2026-04-15 13:19 | 37.40684 | 125.94221 | 16103 ft | 368 kts | 272° |
| 2026-04-15 13:19 | 37.40662 | 125.92106 | 16348 ft | 368 kts | 272° |
| 2026-04-15 13:20 | 37.40625 | 125.88862 | 16733 ft | 370 kts | 272° |
| 2026-04-15 13:20 | 37.40577 | 125.84579 | 17210 ft | 371 kts | 272° |
| 2026-04-15 13:20 | 37.40538 | 125.81314 | 17606 ft | 372 kts | 272° |
| 2026-04-15 13:20 | 37.40499 | 125.78084 | 17993 ft | 373 kts | 272° |
| 2026-04-15 13:21 | 37.40458 | 125.74821 | 18376 ft | 373 kts | 272° |
| 2026-04-15 13:21 | 37.40417 | 125.71561 | 18736 ft | 374 kts | 273° |
| 2026-04-15 13:21 | 37.40389 | 125.69376 | 18988 ft | 375 kts | 273° |
| 2026-04-15 13:21 | 37.40347 | 125.66137 | 19348 ft | 376 kts | 273° |
| 2026-04-15 13:22 | 37.40288 | 125.61742 | 19850 ft | 378 kts | 273° |
| 2026-04-15 13:22 | 37.40257 | 125.59521 | 20103 ft | 379 kts | 274° |
| 2026-04-15 13:22 | 37.40211 | 125.56237 | 20479 ft | 379 kts | 274° |
| 2026-04-15 13:22 | 37.40148 | 125.51829 | 20976 ft | 382 kts | 274° |
| 2026-04-15 13:23 | 37.40115 | 125.49580 | 21229 ft | 382 kts | 274° |
| 2026-04-15 13:23 | 37.40066 | 125.46279 | 21597 ft | 384 kts | 274° |
| 2026-04-15 13:23 | 37.39999 | 125.41803 | 22092 ft | 384 kts | 274° |
| 2026-04-15 13:23 | 37.39964 | 125.39584 | 22337 ft | 386 kts | 275° |
| 2026-04-15 13:24 | 37.39912 | 125.36213 | 22707 ft | 386 kts | 275° |
| 2026-04-15 13:24 | 37.39840 | 125.31704 | 23203 ft | 389 kts | 274° |
| 2026-04-15 13:24 | 37.39803 | 125.29452 | 23451 ft | 390 kts | 275° |
| 2026-04-15 13:24 | 37.39727 | 125.24882 | 23951 ft | 390 kts | 275° |
| 2026-04-15 13:25 | 37.39689 | 125.22620 | 24196 ft | 391 kts | 274° |
| 2026-04-15 13:25 | 37.39612 | 125.18120 | 24691 ft | 389 kts | 274° |
| 2026-04-15 13:25 | 37.39574 | 125.15872 | 24937 ft | 389 kts | 274° |
| 2026-04-15 13:25 | 37.39494 | 125.11337 | 25444 ft | 388 kts | 274° |
| 2026-04-15 13:26 | 37.39434 | 125.07956 | 25830 ft | 389 kts | 274° |
| 2026-04-15 13:26 | 37.39394 | 125.05695 | 26077 ft | 387 kts | 274° |
| 2026-04-15 13:26 | 37.39312 | 125.01207 | 26576 ft | 389 kts | 274° |
| 2026-04-15 13:26 | 37.39269 | 124.98950 | 26827 ft | 387 kts | 274° |
| 2026-04-15 13:27 | 37.39185 | 124.94453 | 27326 ft | 387 kts | 274° |
| 2026-04-15 13:27 | 37.39120 | 124.91088 | 27699 ft | 387 kts | 273° |
| 2026-04-15 13:27 | 37.39054 | 124.87711 | 28078 ft | 388 kts | 273° |
| 2026-04-15 13:27 | 37.39010 | 124.85458 | 28332 ft | 386 kts | 273° |
| 2026-04-15 13:28 | 37.38942 | 124.82113 | 28707 ft | 386 kts | 274° |
| 2026-04-15 13:28 | 37.38884 | 124.79253 | 29025 ft | 389 kts | 274° |
| 2026-04-15 13:28 | 37.38815 | 124.75919 | 29394 ft | 387 kts | 273° |
| 2026-04-15 13:28 | 37.38744 | 124.72541 | 29764 ft | 389 kts | 273° |
| 2026-04-15 13:29 | 37.38681 | 124.69554 | 30096 ft | 388 kts | 273° |
| 2026-04-15 13:29 | 37.38613 | 124.66378 | 30453 ft | 389 kts | 272° |
| 2026-04-15 13:29 | 37.38538 | 124.62955 | 30844 ft | 389 kts | 272° |
| 2026-04-15 13:29 | 37.38438 | 124.58412 | 31351 ft | 392 kts | 272° |
| 2026-04-15 13:30 | 37.38362 | 124.55009 | 31724 ft | 392 kts | 272° |
| 2026-04-15 13:30 | 37.38284 | 124.51551 | 31999 ft | 396 kts | 271° |
| 2026-04-15 13:30 | 37.38053 | 124.45792 | 32014 ft | 397 kts | 266° |
| 2026-04-15 13:31 | 37.36090 | 124.38038 | 32012 ft | 409 kts | 250° |
| 2026-04-15 13:31 | 37.33614 | 124.32919 | 32039 ft | 414 kts | 245° |
| 2026-04-15 13:32 | 37.29951 | 124.25609 | 32033 ft | 437 kts | 245° |
| 2026-04-15 13:32 | 37.27243 | 124.20220 | 32038 ft | 444 kts | 244° |
| 2026-04-15 13:33 | 37.23941 | 124.13672 | 32033 ft | 445 kts | 245° |
| 2026-04-15 13:33 | 37.20007 | 124.06203 | 32032 ft | 446 kts | 243° |
| 2026-04-15 13:34 | 37.16570 | 123.99790 | 32037 ft | 446 kts | 243° |
| 2026-04-15 13:34 | 37.13842 | 123.94534 | 32029 ft | 446 kts | 244° |
| 2026-04-15 13:35 | 37.09956 | 123.86984 | 32037 ft | 444 kts | 244° |
| 2026-04-15 13:35 | 37.06626 | 123.80534 | 32061 ft | 444 kts | 244° |
| 2026-04-15 13:36 | 37.03296 | 123.74097 | 32135 ft | 445 kts | 244° |
| 2026-04-15 13:36 | 36.99934 | 123.67615 | 32131 ft | 444 kts | 244° |
| 2026-04-15 13:37 | 36.97133 | 123.62223 | 32140 ft | 444 kts | 244° |
| 2026-04-15 13:37 | 36.93765 | 123.55753 | 32133 ft | 444 kts | 243° |
| 2026-04-15 13:38 | 36.90408 | 123.49313 | 32137 ft | 445 kts | 243° |
| 2026-04-15 13:38 | 36.86628 | 123.41721 | 32137 ft | 439 kts | 250° |
| 2026-04-15 13:39 | 36.85095 | 123.35761 | 32133 ft | 433 kts | 263° |
| 2026-04-15 13:39 | 36.85209 | 123.27124 | 32153 ft | 429 kts | 281° |
| 2026-04-15 13:40 | 36.86845 | 123.20013 | 32154 ft | 430 kts | 285° |
| 2026-04-15 13:40 | 36.88285 | 123.14095 | 32157 ft | 430 kts | 285° |
| 2026-04-15 13:41 | 36.90000 | 123.07001 | 32154 ft | 430 kts | 285° |
| 2026-04-15 13:41 | 36.92012 | 122.98634 | 32153 ft | 431 kts | 285° |
| 2026-04-15 13:42 | 36.93433 | 122.92697 | 32158 ft | 432 kts | 285° |
| 2026-04-15 13:42 | 36.95423 | 122.84360 | 32153 ft | 432 kts | 285° |
| 2026-04-15 13:43 | 36.97121 | 122.77218 | 32150 ft | 432 kts | 284° |
| 2026-04-15 13:43 | 36.98830 | 122.70012 | 32149 ft | 432 kts | 285° |
| 2026-04-15 13:44 | 37.00510 | 122.62903 | 32144 ft | 432 kts | 285° |
| 2026-04-15 13:44 | 37.02206 | 122.55704 | 32142 ft | 432 kts | 285° |
| 2026-04-15 13:45 | 37.03885 | 122.48559 | 32144 ft | 433 kts | 285° |
| 2026-04-15 13:47 | 37.15603 | 122.24241 | 32161 ft | 449 kts | 305° |
| 2026-04-15 13:47 | 37.19179 | 122.16438 | 32157 ft | 437 kts | 290° |
| 2026-04-15 13:48 | 37.21415 | 122.09375 | 32152 ft | 436 kts | 288° |
| 2026-04-15 13:48 | 37.23471 | 122.02246 | 32154 ft | 436 kts | 287° |
| 2026-04-15 13:49 | 37.25433 | 121.95068 | 32144 ft | 436 kts | 286° |
| 2026-04-15 13:49 | 37.27350 | 121.87837 | 32149 ft | 437 kts | 286° |
| 2026-04-15 13:50 | 37.28916 | 121.81835 | 32144 ft | 437 kts | 286° |
| 2026-04-15 13:50 | 37.31095 | 121.73403 | 32157 ft | 437 kts | 286° |
| 2026-04-15 13:51 | 37.32949 | 121.66170 | 32147 ft | 437 kts | 285° |
| 2026-04-15 13:51 | 37.34813 | 121.58866 | 32143 ft | 438 kts | 286° |
| 2026-04-15 13:52 | 37.36644 | 121.51662 | 32141 ft | 438 kts | 286° |
| 2026-04-15 13:52 | 37.38488 | 121.44385 | 32137 ft | 438 kts | 286° |
| 2026-04-15 13:53 | 37.40014 | 121.38343 | 32138 ft | 438 kts | 286° |
| 2026-04-15 13:53 | 37.41857 | 121.31026 | 32152 ft | 440 kts | 285° |
| 2026-04-15 13:54 | 37.43690 | 121.23729 | 32148 ft | 440 kts | 285° |
| 2026-04-15 13:54 | 37.45885 | 121.15211 | 32148 ft | 441 kts | 288° |
| 2026-04-15 13:55 | 37.48209 | 121.08063 | 32140 ft | 441 kts | 289° |
| 2026-04-15 13:55 | 37.50133 | 121.02121 | 32145 ft | 443 kts | 289° |
| 2026-04-15 13:56 | 37.52797 | 120.93810 | 32131 ft | 443 kts | 289° |
| 2026-04-15 13:56 | 37.54697 | 120.87835 | 32126 ft | 443 kts | 289° |
| 2026-04-15 13:57 | 37.56969 | 120.80662 | 32118 ft | 443 kts | 289° |
| 2026-04-15 13:57 | 37.59651 | 120.72247 | 32123 ft | 444 kts | 290° |
| 2026-04-15 13:58 | 37.61613 | 120.66309 | 32122 ft | 443 kts | 290° |
| 2026-04-15 13:58 | 37.64317 | 120.58093 | 32117 ft | 443 kts | 290° |
| 2026-04-15 13:59 | 37.66529 | 120.52213 | 32119 ft | 445 kts | 296° |
| 2026-04-15 13:59 | 37.69604 | 120.45485 | 32112 ft | 447 kts | 297° |
| 2026-04-15 14:00 | 37.72680 | 120.38751 | 32112 ft | 447 kts | 297° |
| 2026-04-15 14:00 | 37.76302 | 120.30799 | 32133 ft | 448 kts | 296° |
| 2026-04-15 14:01 | 37.80407 | 120.21752 | 32126 ft | 448 kts | 296° |
| 2026-04-15 14:02 | 37.83473 | 120.14978 | 32118 ft | 448 kts | 296° |
| 2026-04-15 14:02 | 37.86512 | 120.08249 | 32115 ft | 447 kts | 296° |
| 2026-04-15 14:03 | 37.89519 | 120.01576 | 32117 ft | 449 kts | 296° |
| 2026-04-15 14:03 | 37.92578 | 119.94775 | 32110 ft | 449 kts | 296° |
| 2026-04-15 14:04 | 37.95631 | 119.87969 | 32111 ft | 449 kts | 296° |
| 2026-04-15 14:04 | 37.99184 | 119.80034 | 32106 ft | 450 kts | 296° |
| 2026-04-15 14:05 | 38.02248 | 119.73174 | 32106 ft | 450 kts | 296° |
| 2026-04-15 14:05 | 38.04753 | 119.67556 | 32102 ft | 450 kts | 296° |
| 2026-04-15 14:06 | 38.07795 | 119.60719 | 32105 ft | 450 kts | 296° |
| 2026-04-15 14:06 | 38.10752 | 119.54031 | 32099 ft | 450 kts | 295° |
| 2026-04-15 14:07 | 38.13666 | 119.45446 | 32094 ft | 448 kts | 290° |
| 2026-04-15 14:07 | 38.16047 | 119.38130 | 32096 ft | 449 kts | 290° |
| 2026-04-15 14:08 | 38.18015 | 119.32074 | 32104 ft | 449 kts | 290° |
| 2026-04-15 14:08 | 38.20776 | 119.23555 | 32102 ft | 450 kts | 290° |
| 2026-04-15 14:09 | 38.23159 | 119.16183 | 32101 ft | 451 kts | 290° |
| 2026-04-15 14:09 | 38.25522 | 119.08854 | 32100 ft | 451 kts | 290° |
| 2026-04-15 14:10 | 38.27489 | 119.02741 | 32088 ft | 452 kts | 290° |
| 2026-04-15 14:10 | 38.30210 | 118.94263 | 32097 ft | 452 kts | 290° |
| 2026-04-15 14:11 | 38.32185 | 118.88091 | 32094 ft | 452 kts | 290° |
| 2026-04-15 14:11 | 38.34520 | 118.80778 | 32083 ft | 453 kts | 289° |
| 2026-04-15 14:11 | 38.36076 | 118.75898 | 32094 ft | 439 kts | 289° |
| 2026-04-15 14:12 | 38.37213 | 118.72343 | 32090 ft | 428 kts | 290° |
| 2026-04-15 14:12 | 38.38300 | 118.68947 | 32072 ft | 411 kts | 289° |
| 2026-04-15 14:12 | 38.38995 | 118.66777 | 32083 ft | 399 kts | 289° |
| 2026-04-15 14:12 | 38.40017 | 118.63579 | 32081 ft | 382 kts | 289° |
| 2026-04-15 14:13 | 38.40999 | 118.60497 | 32071 ft | 377 kts | 289° |
| 2026-04-15 14:13 | 38.43273 | 118.53339 | 32076 ft | 383 kts | 289° |
| 2026-04-15 14:14 | 38.44952 | 118.48044 | 32070 ft | 385 kts | 289° |
| 2026-04-15 14:14 | 38.45934 | 118.44952 | 31619 ft | 379 kts | 289° |
| 2026-04-15 14:14 | 38.46899 | 118.41902 | 30745 ft | 383 kts | 289° |
| 2026-04-15 14:14 | 38.47899 | 118.38739 | 29917 ft | 386 kts | 289° |
| 2026-04-15 14:15 | 38.48892 | 118.35591 | 29392 ft | 381 kts | 290° |
| 2026-04-15 14:15 | 38.49870 | 118.32491 | 28938 ft | 377 kts | 289° |
| 2026-04-15 14:15 | 38.50950 | 118.29063 | 28394 ft | 373 kts | 289° |
| 2026-04-15 14:15 | 38.51409 | 118.27601 | 28103 ft | 372 kts | 289° |
| 2026-04-15 14:16 | 38.52764 | 118.23289 | 27217 ft | 373 kts | 289° |
| 2026-04-15 14:16 | 38.53702 | 118.20301 | 26665 ft | 371 kts | 289° |
| 2026-04-15 14:16 | 38.54644 | 118.17297 | 26154 ft | 368 kts | 289° |
| 2026-04-15 14:17 | 38.55586 | 118.14291 | 25617 ft | 366 kts | 289° |
| 2026-04-15 14:17 | 38.56523 | 118.11296 | 25047 ft | 365 kts | 289° |
| 2026-04-15 14:17 | 38.57462 | 118.08290 | 24462 ft | 364 kts | 289° |
| 2026-04-15 14:17 | 38.58394 | 118.05306 | 23841 ft | 365 kts | 289° |
| 2026-04-15 14:18 | 38.59331 | 118.02303 | 23259 ft | 364 kts | 290° |
| 2026-04-15 14:18 | 38.60344 | 117.99356 | 22757 ft | 362 kts | 292° |
| 2026-04-15 14:18 | 38.61377 | 117.96458 | 22281 ft | 358 kts | 292° |
| 2026-04-15 14:18 | 38.62387 | 117.93608 | 21839 ft | 354 kts | 292° |
| 2026-04-15 14:19 | 38.63394 | 117.90751 | 21387 ft | 351 kts | 292° |
| 2026-04-15 14:19 | 38.64385 | 117.87927 | 20935 ft | 348 kts | 292° |
| 2026-04-15 14:19 | 38.65367 | 117.85120 | 20485 ft | 346 kts | 292° |
| 2026-04-15 14:19 | 38.66338 | 117.82338 | 20012 ft | 343 kts | 292° |
| 2026-04-15 14:20 | 38.67310 | 117.79551 | 19546 ft | 341 kts | 292° |
| 2026-04-15 14:20 | 38.68270 | 117.76792 | 19095 ft | 338 kts | 293° |
| 2026-04-15 14:20 | 38.69220 | 117.74064 | 18676 ft | 336 kts | 293° |
| 2026-04-15 14:20 | 38.70161 | 117.71354 | 18188 ft | 334 kts | 293° |
| 2026-04-15 14:21 | 38.71096 | 117.68662 | 17739 ft | 332 kts | 293° |
| 2026-04-15 14:21 | 38.72026 | 117.65982 | 17322 ft | 330 kts | 293° |
| 2026-04-15 14:21 | 38.72950 | 117.63314 | 16862 ft | 329 kts | 293° |
| 2026-04-15 14:21 | 38.73878 | 117.60635 | 16412 ft | 328 kts | 293° |
| 2026-04-15 14:22 | 38.74804 | 117.57956 | 15976 ft | 334 kts | 293° |
| 2026-04-15 14:22 | 38.75755 | 117.55203 | 15507 ft | 340 kts | 293° |
| 2026-04-15 14:22 | 38.76697 | 117.52475 | 15045 ft | 340 kts | 293° |
| 2026-04-15 14:22 | 38.77652 | 117.49707 | 14594 ft | 338 kts | 292° |
| 2026-04-15 14:23 | 38.78596 | 117.46968 | 14128 ft | 337 kts | 293° |
| 2026-04-15 14:23 | 38.79543 | 117.44218 | 13652 ft | 335 kts | 293° |
| 2026-04-15 14:23 | 38.80481 | 117.41493 | 13199 ft | 335 kts | 292° |
| 2026-04-15 14:23 | 38.81408 | 117.38794 | 12765 ft | 334 kts | 292° |
| 2026-04-15 14:24 | 38.82340 | 117.36079 | 12288 ft | 333 kts | 292° |
| 2026-04-15 14:24 | 38.83263 | 117.33387 | 11838 ft | 332 kts | 291° |
| 2026-04-15 14:24 | 38.84200 | 117.30653 | 11367 ft | 331 kts | 292° |
| 2026-04-15 14:24 | 38.85116 | 117.27978 | 10907 ft | 330 kts | 291° |
| 2026-04-15 14:25 | 38.86028 | 117.25312 | 10461 ft | 328 kts | 291° |
| 2026-04-15 14:25 | 38.86924 | 117.22691 | 10310 ft | 316 kts | 291° |
| 2026-04-15 14:25 | 38.87788 | 117.20163 | 10253 ft | 303 kts | 291° |
| 2026-04-15 14:25 | 38.88628 | 117.17703 | 10158 ft | 293 kts | 291° |
| 2026-04-15 14:26 | 38.89434 | 117.15336 | 9975 ft | 287 kts | 291° |
| 2026-04-15 14:26 | 38.90226 | 117.13010 | 9699 ft | 284 kts | 291° |
| 2026-04-15 14:26 | 38.91016 | 117.10689 | 9602 ft | 283 kts | 291° |
| 2026-04-15 14:26 | 38.91799 | 117.08381 | 9509 ft | 284 kts | 291° |
| 2026-04-15 14:27 | 38.92591 | 117.06052 | 9413 ft | 283 kts | 291° |
| 2026-04-15 14:27 | 38.93365 | 117.03770 | 9306 ft | 282 kts | 291° |
| 2026-04-15 14:27 | 38.94155 | 117.01441 | 9202 ft | 281 kts | 291° |
| 2026-04-15 14:27 | 38.94933 | 116.99146 | 9079 ft | 280 kts | 291° |
| 2026-04-15 14:28 | 38.95710 | 116.96851 | 8967 ft | 280 kts | 291° |
| 2026-04-15 14:28 | 38.96480 | 116.94577 | 8853 ft | 279 kts | 291° |
| 2026-04-15 14:28 | 38.97251 | 116.92297 | 8747 ft | 278 kts | 291° |
| 2026-04-15 14:28 | 38.98022 | 116.90016 | 8640 ft | 278 kts | 290° |
| 2026-04-15 14:29 | 38.98781 | 116.87766 | 8535 ft | 277 kts | 291° |
| 2026-04-15 14:29 | 38.99552 | 116.85480 | 8426 ft | 276 kts | 291° |
| 2026-04-15 14:29 | 39.00310 | 116.83234 | 8318 ft | 275 kts | 290° |
| 2026-04-15 14:29 | 39.01073 | 116.80967 | 8212 ft | 275 kts | 290° |
| 2026-04-15 14:30 | 39.01824 | 116.78735 | 8105 ft | 275 kts | 290° |
| 2026-04-15 14:30 | 39.02581 | 116.76484 | 7999 ft | 275 kts | 291° |
| 2026-04-15 14:30 | 39.03627 | 116.74432 | 7885 ft | 279 kts | 314° |
| 2026-04-15 14:30 | 39.05283 | 116.73164 | 7791 ft | 282 kts | 341° |
| 2026-04-15 14:31 | 39.07204 | 116.72640 | 7785 ft | 284 kts | 351° |
| 2026-04-15 14:31 | 39.09168 | 116.72321 | 7776 ft | 285 kts | 353° |
| 2026-04-15 14:31 | 39.11148 | 116.72028 | 7746 ft | 285 kts | 352° |
| 2026-04-15 14:31 | 39.13112 | 116.71737 | 7717 ft | 285 kts | 352° |
| 2026-04-15 14:32 | 39.15076 | 116.71441 | 7682 ft | 285 kts | 352° |
| 2026-04-15 14:32 | 39.17036 | 116.71145 | 7647 ft | 284 kts | 352° |
| 2026-04-15 14:32 | 39.18986 | 116.70850 | 7624 ft | 285 kts | 352° |
| 2026-04-15 14:32 | 39.20906 | 116.70560 | 7600 ft | 284 kts | 352° |
| 2026-04-15 14:33 | 39.22867 | 116.70262 | 7569 ft | 285 kts | 352° |
| 2026-04-15 14:33 | 39.24832 | 116.69965 | 7537 ft | 286 kts | 352° |
| 2026-04-15 14:33 | 39.26789 | 116.69667 | 7509 ft | 285 kts | 352° |
| 2026-04-15 14:33 | 39.28714 | 116.69371 | 7486 ft | 285 kts | 350° |
| 2026-04-15 14:34 | 39.30550 | 116.68551 | 7449 ft | 281 kts | 324° |
| 2026-04-15 14:34 | 39.31905 | 116.66801 | 7408 ft | 274 kts | 298° |
| 2026-04-15 14:34 | 39.32527 | 116.64507 | 7381 ft | 266 kts | 274° |
| 2026-04-15 14:34 | 39.32594 | 116.62160 | 7364 ft | 265 kts | 263° |
| 2026-04-15 14:35 | 39.32111 | 116.59930 | 7325 ft | 256 kts | 238° |
| 2026-04-15 14:35 | 39.30935 | 116.58243 | 7290 ft | 254 kts | 213° |
| 2026-04-15 14:35 | 39.29328 | 116.57396 | 7265 ft | 252 kts | 189° |
| 2026-04-15 14:35 | 39.27587 | 116.57513 | 7246 ft | 252 kts | 169° |
| 2026-04-15 14:36 | 39.25870 | 116.58018 | 7238 ft | 253 kts | 171° |
| 2026-04-15 14:36 | 39.24124 | 116.58390 | 7211 ft | 254 kts | 174° |
| 2026-04-15 14:36 | 39.22362 | 116.58679 | 7180 ft | 252 kts | 175° |
| 2026-04-15 14:36 | 39.20629 | 116.58946 | 6946 ft | 251 kts | 175° |
| 2026-04-15 14:37 | 39.19252 | 116.59154 | 6684 ft | 252 kts | 175° |
| 2026-04-15 14:37 | 39.17954 | 116.59351 | 6490 ft | 250 kts | 175° |
| 2026-04-15 14:37 | 39.16239 | 116.59613 | 6242 ft | 248 kts | 175° |
| 2026-04-15 14:37 | 39.14542 | 116.59559 | 5942 ft | 245 kts | 195° |
| 2026-04-15 14:38 | 39.13046 | 116.58550 | 5653 ft | 244 kts | 222° |
| 2026-04-15 14:38 | 39.12112 | 116.56792 | 5632 ft | 236 kts | 247° |
| 2026-04-15 14:38 | 39.11715 | 116.54792 | 5621 ft | 227 kts | 256° |
| 2026-04-15 14:38 | 39.11464 | 116.52841 | 5598 ft | 214 kts | 258° |
| 2026-04-15 14:39 | 39.11451 | 116.50966 | 5408 ft | 213 kts | 279° |
| 2026-04-15 14:39 | 39.12175 | 116.49281 | 5054 ft | 224 kts | 313° |
| 2026-04-15 14:39 | 39.13518 | 116.48386 | 4987 ft | 214 kts | 344° |
| 2026-04-15 14:39 | 39.14937 | 116.48097 | 4910 ft | 202 kts | 351° |
| 2026-04-15 14:40 | 39.16324 | 116.47923 | 4701 ft | 199 kts | 353° |
| 2026-04-15 14:40 | 39.17709 | 116.47762 | 4436 ft | 198 kts | 352° |
| 2026-04-15 14:40 | 39.19064 | 116.47555 | 4310 ft | 193 kts | 350° |
| 2026-04-15 14:40 | 39.20394 | 116.47302 | 4186 ft | 190 kts | 349° |
| 2026-04-15 14:41 | 39.21647 | 116.47091 | 4145 ft | 178 kts | 351° |
| 2026-04-15 14:41 | 39.22842 | 116.46905 | 4098 ft | 167 kts | 351° |
| 2026-04-15 14:41 | 39.23992 | 116.46744 | 4038 ft | 170 kts | 353° |
| 2026-04-15 14:41 | 39.25248 | 116.46597 | 4021 ft | 192 kts | 352° |
| 2026-04-15 14:42 | 39.26598 | 116.46398 | 4022 ft | 195 kts | 351° |
| 2026-04-15 14:42 | 39.27931 | 116.46183 | 3813 ft | 194 kts | 351° |
| 2026-04-15 14:42 | 39.29284 | 116.45958 | 3559 ft | 195 kts | 350° |
| 2026-04-15 14:42 | 39.30629 | 116.45739 | 3306 ft | 195 kts | 351° |
| 2026-04-15 14:43 | 39.31958 | 116.45525 | 3058 ft | 196 kts | 351° |
| 2026-04-15 14:43 | 39.33316 | 116.45309 | 2801 ft | 197 kts | 351° |
| 2026-04-15 14:43 | 39.34676 | 116.45095 | 2514 ft | 196 kts | 351° |
| 2026-04-15 14:43 | 39.36017 | 116.44884 | 2268 ft | 192 kts | 351° |
| 2026-04-15 14:44 | 39.37328 | 116.44676 | 2023 ft | 188 kts | 351° |
| 2026-04-15 14:44 | 39.38607 | 116.44475 | 1784 ft | 184 kts | 351° |
| 2026-04-15 14:44 | 39.39836 | 116.44282 | 1552 ft | 170 kts | 352° |
| 2026-04-15 14:44 | 39.40959 | 116.44104 | 1349 ft | 158 kts | 352° |
| 2026-04-15 14:45 | 39.42018 | 116.43937 | 1148 ft | 153 kts | 352° |
| 2026-04-15 14:45 | 39.43034 | 116.43778 | 945 ft | 148 kts | 352° |
| 2026-04-15 14:45 | 39.44052 | 116.43617 | 743 ft | 144 kts | 353° |
| 2026-04-15 14:45 | 39.45040 | 116.43462 | 548 ft | 143 kts | 353° |
| 2026-04-15 14:46 | 39.46020 | 116.43308 | 351 ft | 141 kts | 353° |
| 2026-04-15 14:46 | 39.46974 | 116.43157 | 158 ft | 140 kts | 354° |
| 2026-04-15 14:46 | 39.47897 | 116.43011 | 97 ft | 117 kts | 353° |
| 2026-04-15 14:46 | 39.48543 | 116.42911 | 97 ft | 73 kts | 354° |
| 2026-04-15 14:47 | 39.48892 | 116.42856 | 97 ft | 34 kts | 353° |
| 2026-04-15 14:47 | 39.49124 | 116.42784 | 97 ft | 35 kts | 335° |
| 2026-04-15 14:47 | 39.49332 | 116.42609 | 97 ft | 33 kts | 326° |
| 2026-04-15 14:47 | 39.49465 | 116.42492 | 97 ft | 24 kts | 326° |
| 2026-04-15 14:48 | 39.49616 | 116.42400 | 97 ft | 26 kts | 351° |
| 2026-04-15 14:48 | 39.49804 | 116.42376 | 97 ft | 28 kts | 353° |
| 2026-04-15 14:48 | 39.50005 | 116.42343 | 97 ft | 30 kts | 353° |
| 2026-04-15 14:48 | 39.50219 | 116.42310 | 97 ft | 28 kts | 352° |
| 2026-04-15 14:49 | 39.50291 | 116.42149 | 97 ft | 26 kts | 260° |
| 2026-04-15 14:49 | 39.50269 | 116.41906 | 97 ft | 28 kts | 261° |
| 2026-04-15 14:49 | 39.50244 | 116.41651 | 97 ft | 30 kts | 262° |
| 2026-04-15 14:49 | 39.50219 | 116.41379 | 97 ft | 31 kts | 263° |
| 2026-04-15 14:50 | 39.50252 | 116.41196 | 97 ft | 23 kts | 332° |
| 2026-04-15 14:50 | 39.50313 | 116.41030 | 97 ft | 18 kts | 339° |
| 2026-04-15 14:50 | 39.50389 | 116.40978 | 97 ft | 12 kts | 303° |
| 2026-04-15 14:50 | 39.50436 | 116.40884 | 97 ft | 14 kts | 347° |
| 2026-04-15 14:51 | 39.50481 | 116.40923 | 97 ft | 9 kts | 85° |
| 2026-04-15 14:51 | 39.50484 | 116.40978 | 97 ft | 4 kts | 83° |
| 2026-04-15 14:51 | 39.50486 | 116.41000 | 97 ft | 0 kts | 81° |